Time;durP1;ratioP1;P1;durP2;ratioP2;P2;SDS_P1;SDS_P2;PMS_P1;PMS_P2;Temp;Humidity;BMP_temperature;BMP_pressure;BME280_temperature;BME280_humidity;BME280_pressure;Samples;Min_cycle;Max_cycle;Signal;HPM_P1;HPM_P2
2022/08/27 00:01:15;;;;;;;;;;;21.40;99.90;;;-147.18;100.00;67318.16;4985309;28;20374;-76
2022/08/27 00:03:42;;;;;;;;;;;21.40;99.90;;;-147.18;100.00;67318.16;4992118;28;20132;-76
2022/08/27 00:06:12;;;;;;;;;;;21.40;99.90;;;-147.18;100.00;67318.16;4984182;28;19922;-76
2022/08/27 00:08:40;;;;;;;;;;;21.30;99.90;;;-147.18;100.00;67318.16;4990894;28;19921;-76
2022/08/27 00:11:07;;;;;;;;;;;21.40;99.90;;;-147.18;100.00;67318.16;4985060;28;20012;-76
2022/08/27 00:13:35;;;;;;;;;;;21.30;99.90;;;-147.18;100.00;67318.16;4992088;28;19949;-76
2022/08/27 00:16:02;;;;;;;;;;;21.40;99.90;;;-147.18;100.00;67318.16;4982307;28;19926;-76
2022/08/27 00:18:29;;;;;;;;;;;21.30;99.90;;;-147.18;100.00;67318.16;4992688;28;20034;-76
2022/08/27 00:20:56;;;;;;;;;;;21.30;99.90;;;-147.18;100.00;67318.16;4983034;28;19930;-76
2022/08/27 00:23:25;;;;;;;;;;;21.30;99.90;;;-147.18;100.00;67318.16;4980748;28;19922;-76
2022/08/27 00:25:52;;;;;;;;;;;21.30;99.90;;;-147.18;100.00;67318.16;4973299;28;20013;-76
2022/08/27 00:28:19;;;;;;;;;;;21.30;99.90;;;-147.18;100.00;67318.16;4988257;28;19929;-76
2022/08/27 00:30:46;;;;;;;;;;;21.20;99.90;;;-147.18;100.00;67318.16;4984290;28;20000;-76
2022/08/27 00:33:13;;;;;;;;;;;21.20;99.90;;;-147.18;100.00;67318.16;4985645;28;20394;-76
2022/08/27 00:35:40;;;;;;;;;;;21.20;99.90;;;-147.18;100.00;67318.16;4983989;28;19922;-76
2022/08/27 00:38:08;;;;;;;;;;;21.20;99.90;;;-147.18;100.00;67318.16;4988170;28;19926;-76
2022/08/27 00:40:37;;;;;;;;;;;21.20;99.90;;;-147.18;100.00;67318.16;4985789;28;19921;-76
2022/08/27 00:43:04;;;;;;;;;;;21.20;99.90;;;-147.18;100.00;67318.16;4979830;28;19922;-76
2022/08/27 00:45:33;;;;;;;;;;;21.20;99.90;;;-147.18;100.00;67318.16;4990415;28;19944;-76
2022/08/27 00:48:00;;;;;;;;;;;21.10;99.90;;;-147.18;100.00;67318.16;4990218;28;19933;-76
2022/08/27 00:50:33;;;;;;;;;;;21.10;99.90;;;-147.18;100.00;67318.16;4998446;28;20291;-76
2022/08/27 00:53:02;;;;;;;;;;;21.10;99.90;;;-147.18;100.00;67318.16;4985174;28;20313;-76
2022/08/27 00:55:34;;;;;;;;;;;21.10;99.90;;;-147.18;100.00;67318.16;4991860;28;20377;-76
2022/08/27 00:58:09;;;;;;;;;;;21.10;99.90;;;-147.18;100.00;67318.16;4990538;28;19922;-76
2022/08/27 01:00:37;;;;;;;;;;;21.10;99.90;;;-147.18;100.00;67318.16;4985194;28;19921;-76
2022/08/27 01:03:04;;;;;;;;;;;21.10;99.90;;;-147.18;100.00;67318.16;4983843;28;20437;-76
2022/08/27 01:05:33;;;;;;;;;;;21.10;99.90;;;-147.18;100.00;67318.16;4991822;28;19921;-76
2022/08/27 01:08:04;;;;;;;;;;;21.00;99.90;;;-147.18;100.00;67318.16;4992052;28;19928;-76
2022/08/27 01:10:31;;;;;;;;;;;21.00;99.90;;;-147.18;100.00;67318.16;4991483;28;20313;-76
2022/08/27 01:12:58;;;;;;;;;;;21.00;99.90;;;-147.18;100.00;67318.16;4984281;28;19926;-76
2022/08/27 01:15:28;;;;;;;;;;;21.00;99.90;;;-147.18;100.00;67318.16;4990852;28;19925;-76
2022/08/27 01:17:56;;;;;;;;;;;21.00;99.90;;;-147.18;100.00;67318.16;4990549;28;20020;-77
2022/08/27 01:20:26;;;;;;;;;;;21.00;99.90;;;-147.18;100.00;67318.16;4997927;28;20366;-76
2022/08/27 01:23:01;;;;;;;;;;;21.00;99.90;;;-147.18;100.00;67318.16;4983258;28;19935;-76
2022/08/27 01:25:29;;;;;;;;;;;21.00;99.90;;;-147.18;100.00;67318.16;4982948;28;20033;-77
2022/08/27 01:27:59;;;;;;;;;;;20.90;99.90;;;-147.18;100.00;67318.16;5001062;28;19929;-76
2022/08/27 01:30:27;;;;;;;;;;;20.90;99.90;;;-147.18;100.00;67318.16;4989590;28;20017;-76
2022/08/27 01:32:54;;;;;;;;;;;20.90;99.90;;;-147.18;100.00;67318.16;4988613;28;19961;-76
2022/08/27 01:35:22;;;;;;;;;;;20.90;99.90;;;-147.18;100.00;67318.16;4973621;28;19926;-76
2022/08/27 01:37:52;;;;;;;;;;;20.90;99.90;;;-147.18;100.00;67318.16;4984244;28;19925;-76
2022/08/27 01:40:19;;;;;;;;;;;20.90;99.90;;;-147.18;100.00;67318.16;4990817;28;20016;-76
2022/08/27 01:42:50;;;;;;;;;;;20.90;99.90;;;-147.18;100.00;67318.16;4988811;28;19922;-76
2022/08/27 01:45:20;;;;;;;;;;;20.90;99.90;;;-147.18;100.00;67318.16;4983320;28;19936;-76
2022/08/27 01:47:47;;;;;;;;;;;20.90;99.90;;;-147.18;100.00;67318.16;4991467;28;19930;-76
2022/08/27 01:50:17;;;;;;;;;;;20.80;99.90;;;-147.18;100.00;67318.16;4989730;28;20302;-76
2022/08/27 01:52:45;;;;;;;;;;;20.80;99.90;;;-147.18;100.00;67318.16;4988605;28;19936;-76
2022/08/27 01:55:15;;;;;;;;;;;20.90;99.90;;;-147.18;100.00;67318.16;4981526;28;19928;-76
2022/08/27 01:57:43;;;;;;;;;;;20.80;99.90;;;-147.18;100.00;67318.16;4986378;28;20017;-76
2022/08/27 02:00:15;;;;;;;;;;;20.90;99.90;;;-147.18;100.00;67318.16;4988835;28;19921;-76
2022/08/27 02:02:43;;;;;;;;;;;20.80;99.90;;;-147.18;100.00;67318.16;4982760;28;20016;-76
2022/08/27 02:05:10;;;;;;;;;;;20.80;99.90;;;-147.18;100.00;67318.16;4990849;28;19925;-76
2022/08/27 02:07:38;;;;;;;;;;;20.80;99.90;;;-147.18;100.00;67318.16;4991320;28;19929;-76
2022/08/27 02:10:06;;;;;;;;;;;20.80;99.90;;;-147.18;100.00;67318.16;4989763;28;19922;-76
2022/08/27 02:12:33;;;;;;;;;;;20.80;99.90;;;-147.18;100.00;67318.16;4982238;28;19925;-76
2022/08/27 02:15:00;;;;;;;;;;;20.80;99.90;;;-147.18;100.00;67318.16;4981916;28;20390;-76
2022/08/27 02:17:29;;;;;;;;;;;20.80;99.90;;;-147.18;100.00;67318.16;4971635;28;19930;-76
2022/08/27 02:19:56;;;;;;;;;;;20.80;99.90;;;-147.18;100.00;67318.16;4982000;28;19928;-76
2022/08/27 02:22:23;;;;;;;;;;;20.80;99.90;;;-147.18;100.00;67318.16;4982826;28;19925;-76
2022/08/27 02:24:50;;;;;;;;;;;20.80;99.90;;;-147.18;100.00;67318.16;4982557;28;20366;-76
2022/08/27 02:27:18;;;;;;;;;;;20.70;99.90;;;-147.18;100.00;67318.16;4990624;28;20413;-76
2022/08/27 02:29:46;;;;;;;;;;;20.70;99.90;;;-147.18;100.00;67318.16;4989854;28;19921;-76
2022/08/27 02:32:13;;;;;;;;;;;20.70;99.90;;;-147.18;100.00;67318.16;4982970;28;19926;-76
2022/08/27 02:34:41;;;;;;;;;;;20.70;99.90;;;-147.18;100.00;67318.16;4990403;28;19925;-76
2022/08/27 02:37:08;;;;;;;;;;;20.70;99.90;;;-147.18;100.00;67318.16;4990203;28;19925;-76
2022/08/27 02:39:35;;;;;;;;;;;20.70;99.90;;;-147.18;100.00;67318.16;4987475;28;19928;-76
2022/08/27 02:42:03;;;;;;;;;;;20.60;99.90;;;-147.18;100.00;67318.16;4982658;28;19937;-76
2022/08/27 02:44:31;;;;;;;;;;;20.60;99.90;;;-147.18;100.00;67318.16;4991501;28;19949;-76
2022/08/27 02:46:58;;;;;;;;;;;20.60;99.90;;;-147.18;100.00;67318.16;4994806;28;19941;-76
2022/08/27 02:49:25;;;;;;;;;;;20.70;99.90;;;-147.18;100.00;67318.16;4993359;28;20020;-76
2022/08/27 02:51:55;;;;;;;;;;;20.60;99.90;;;-147.18;100.00;67318.16;4986713;28;19922;-76
2022/08/27 02:54:22;;;;;;;;;;;20.60;99.90;;;-147.18;100.00;67318.16;4979525;28;19921;-76
2022/08/27 02:56:51;;;;;;;;;;;20.60;99.90;;;-147.18;100.00;67318.16;4986437;28;19925;-76
2022/08/27 02:59:18;;;;;;;;;;;20.60;99.90;;;-147.18;100.00;67318.16;4983132;28;19953;-76
2022/08/27 03:01:45;;;;;;;;;;;20.60;99.90;;;-147.18;100.00;67318.16;4989882;28;20267;-76
2022/08/27 03:04:13;;;;;;;;;;;20.60;99.90;;;-147.18;100.00;67318.16;4986419;28;19929;-77
2022/08/27 03:06:40;;;;;;;;;;;20.60;99.90;;;-147.18;100.00;67318.16;4995240;28;20019;-76
2022/08/27 03:09:09;;;;;;;;;;;20.60;99.90;;;-147.18;100.00;67318.16;4984634;28;19922;-76
2022/08/27 03:11:36;;;;;;;;;;;20.50;99.90;;;-147.18;100.00;67318.16;4992022;28;19928;-77
2022/08/27 03:14:03;;;;;;;;;;;20.50;99.90;;;-147.18;100.00;67318.16;4994083;28;19921;-76
2022/08/27 03:16:33;;;;;;;;;;;20.50;99.90;;;-147.18;100.00;67318.16;4993709;28;20378;-76
2022/08/27 03:18:59;;;;;;;;;;;20.50;99.90;;;-147.18;100.00;67318.16;4992563;28;19932;-76
2022/08/27 03:21:26;;;;;;;;;;;20.50;99.90;;;-147.18;100.00;67318.16;4982380;28;19922;-76
2022/08/27 03:23:53;;;;;;;;;;;20.50;99.90;;;-147.18;100.00;67318.16;4974705;28;20411;-76
2022/08/27 03:26:22;;;;;;;;;;;20.50;99.90;;;-147.18;100.00;67318.16;4980024;28;20378;-76
2022/08/27 03:28:49;;;;;;;;;;;20.50;99.90;;;-147.18;100.00;67318.16;4993328;28;19956;-76
2022/08/27 03:31:25;;;;;;;;;;;20.50;99.90;;;-147.18;100.00;67318.16;4987347;28;20004;-76
2022/08/27 03:33:54;;;;;;;;;;;20.50;99.90;;;-147.18;100.00;67318.16;4992622;28;19922;-76
2022/08/27 03:36:21;;;;;;;;;;;20.50;99.90;;;-147.18;100.00;67318.16;4985799;28;19929;-76
2022/08/27 03:38:48;;;;;;;;;;;20.40;99.90;;;-147.18;100.00;67318.16;4993512;28;19960;-76
2022/08/27 03:41:16;;;;;;;;;;;20.40;99.90;;;-147.18;100.00;67318.16;4990336;28;19930;-76
2022/08/27 03:43:45;;;;;;;;;;;20.40;99.90;;;-147.18;100.00;67318.16;4988445;28;19968;-76
2022/08/27 03:46:12;;;;;;;;;;;20.40;99.90;;;-147.18;100.00;67318.16;4993355;28;19928;-76
2022/08/27 03:48:39;;;;;;;;;;;20.40;99.90;;;-147.18;100.00;67318.16;4991353;28;20381;-76
2022/08/27 03:51:07;;;;;;;;;;;20.40;99.90;;;-147.18;100.00;67318.16;4988071;28;20016;-76
2022/08/27 03:53:35;;;;;;;;;;;20.40;99.90;;;-147.18;100.00;67318.16;4983611;28;20220;-76
2022/08/27 03:56:03;;;;;;;;;;;20.40;99.90;;;-147.18;100.00;67318.16;4983677;28;20001;-77
2022/08/27 03:58:30;;;;;;;;;;;20.40;99.90;;;-147.18;100.00;67318.16;4973899;28;19933;-77
2022/08/27 04:00:59;;;;;;;;;;;20.40;99.90;;;-147.18;100.00;67318.16;4985058;28;19930;-77
2022/08/27 04:03:25;;;;;;;;;;;20.40;99.90;;;-147.18;100.00;67318.16;4993472;28;20313;-76
2022/08/27 04:05:53;;;;;;;;;;;20.40;99.90;;;-147.18;100.00;67318.16;4994162;28;19922;-76
2022/08/27 04:08:20;;;;;;;;;;;20.30;99.90;;;-147.18;100.00;67318.16;4992428;28;20080;-76
2022/08/27 04:10:47;;;;;;;;;;;20.40;99.90;;;-147.18;100.00;67318.16;4985666;28;20012;-76
2022/08/27 04:13:15;;;;;;;;;;;20.40;99.90;;;-147.18;100.00;67318.16;4985270;28;20036;-79
2022/08/27 04:15:43;;;;;;;;;;;20.40;99.90;;;-147.18;100.00;67318.16;4992681;28;19950;-78
2022/08/27 04:18:15;;;;;;;;;;;20.40;99.90;;;-147.18;100.00;67318.16;4993085;28;20394;-77
2022/08/27 04:20:42;;;;;;;;;;;20.30;99.90;;;-147.18;100.00;67318.16;4998287;28;20306;-76
2022/08/27 04:23:09;;;;;;;;;;;20.30;99.90;;;-147.18;100.00;67318.16;4991711;28;20370;-76
2022/08/27 04:25:38;;;;;;;;;;;20.30;99.90;;;-147.18;100.00;67318.16;4992466;28;19928;-75
2022/08/27 04:28:05;;;;;;;;;;;20.40;99.90;;;-147.18;100.00;67318.16;4990775;28;19972;-76
2022/08/27 04:30:32;;;;;;;;;;;20.40;99.90;;;-147.18;100.00;67318.16;4986035;28;19928;-80
2022/08/27 04:32:59;;;;;;;;;;;20.30;99.90;;;-147.18;100.00;67318.16;4990315;28;19921;-79
2022/08/27 04:35:28;;;;;;;;;;;20.30;99.90;;;-147.18;100.00;67318.16;4978326;28;20044;-81
2022/08/27 04:37:56;;;;;;;;;;;20.30;99.90;;;-147.18;100.00;67318.16;4976611;28;20014;-81
2022/08/27 04:41:18;;;;;;;;;;;20.30;99.90;;;-147.18;100.00;67318.16;4982488;28;19925;-79
2022/08/27 04:43:12;;;;;;;;;;;20.30;99.90;;;-147.18;100.00;67318.16;4982961;28;19926;-79
2022/08/27 04:45:43;;;;;;;;;;;20.30;99.90;;;-147.18;100.00;67318.16;4982516;28;19929;-79
2022/08/27 04:48:10;;;;;;;;;;;20.30;99.90;;;-147.18;100.00;67318.16;4985216;28;20621;-79
2022/08/27 04:50:40;;;;;;;;;;;20.30;99.90;;;-147.18;100.00;67318.16;4983099;28;19921;-81
2022/08/27 04:53:08;;;;;;;;;;;20.30;99.90;;;-147.18;100.00;67318.16;4977478;28;20112;-80
2022/08/27 04:55:41;;;;;;;;;;;20.30;99.90;;;-147.18;100.00;67318.16;4992769;28;20624;-80
2022/08/27 04:58:09;;;;;;;;;;;20.30;99.90;;;-147.18;100.00;67318.16;4992099;28;19933;-80
2022/08/27 05:00:41;;;;;;;;;;;20.20;99.90;;;-147.18;100.00;67318.16;4982066;28;19925;-80
2022/08/27 05:03:08;;;;;;;;;;;20.20;99.90;;;-147.18;100.00;67318.16;4986662;28;20021;-82
2022/08/27 05:05:36;;;;;;;;;;;20.30;99.90;;;-147.18;100.00;67318.16;4989014;28;20016;-81
2022/08/27 05:08:05;;;;;;;;;;;20.20;99.90;;;-147.18;100.00;67318.16;4988352;28;19922;-81
2022/08/27 05:10:39;;;;;;;;;;;20.20;99.90;;;-147.18;100.00;67318.16;4979175;28;19922;-80
2022/08/27 05:13:06;;;;;;;;;;;20.20;99.90;;;-147.18;100.00;67318.16;4986760;28;19936;-80
2022/08/27 05:15:33;;;;;;;;;;;20.20;99.90;;;-147.18;100.00;67318.16;4991007;28;19922;-80
2022/08/27 05:18:00;;;;;;;;;;;20.10;99.90;;;-147.18;100.00;67318.16;4984634;28;19940;-80
2022/08/27 05:20:28;;;;;;;;;;;20.20;99.90;;;-147.18;100.00;67318.16;4982653;28;19929;-81
2022/08/27 05:22:55;;;;;;;;;;;20.20;99.90;;;-147.18;100.00;67318.16;4981159;28;20252;-81
2022/08/27 05:25:24;;;;;;;;;;;20.10;99.90;;;-147.18;100.00;67318.16;4979142;28;19929;-81
2022/08/27 05:27:52;;;;;;;;;;;20.20;99.90;;;-147.18;100.00;67318.16;4979621;28;19926;-82
2022/08/27 05:30:19;;;;;;;;;;;20.10;99.90;;;-147.18;100.00;67318.16;4980318;28;19926;-82
2022/08/27 05:32:46;;;;;;;;;;;20.10;99.90;;;-147.18;100.00;67318.16;4982624;28;19933;-82
2022/08/27 05:35:13;;;;;;;;;;;20.20;99.90;;;-147.18;100.00;67318.16;4985591;28;20391;-84
2022/08/27 05:37:41;;;;;;;;;;;20.10;99.90;;;-147.18;100.00;67318.16;4979495;28;20536;-82
2022/08/27 05:40:10;;;;;;;;;;;20.10;99.90;;;-147.18;100.00;67318.16;4988653;28;19926;-82
2022/08/27 05:42:38;;;;;;;;;;;20.10;99.90;;;-147.18;100.00;67318.16;4985749;28;19929;-82
2022/08/27 05:45:06;;;;;;;;;;;20.10;99.90;;;-147.18;100.00;67318.16;5006302;28;20317;-85
2022/08/27 05:47:33;;;;;;;;;;;20.20;99.90;;;-147.18;100.00;67318.16;4985191;28;20459;-78
2022/08/27 05:50:00;;;;;;;;;;;20.10;99.90;;;-147.18;100.00;67318.16;4982642;28;19922;-78
2022/08/27 05:52:27;;;;;;;;;;;20.20;99.90;;;-147.18;100.00;67318.16;4991143;28;20024;-79
2022/08/27 05:54:54;;;;;;;;;;;20.20;99.90;;;-147.18;100.00;67318.16;4990521;28;20008;-78
2022/08/27 05:57:21;;;;;;;;;;;20.10;99.90;;;-147.18;100.00;67318.16;4977550;28;19926;-77
2022/08/27 06:02:39;;;;;;;;;;;20.20;99.90;;;-147.18;100.00;67318.16;4976422;28;19989;-77
2022/08/27 06:05:06;;;;;;;;;;;20.10;99.90;;;-147.18;100.00;67318.16;4970628;28;20057;-78
2022/08/27 06:07:34;;;;;;;;;;;20.20;99.90;;;-147.18;100.00;67318.16;4978261;28;20024;-78
2022/08/27 06:10:02;;;;;;;;;;;20.20;99.90;;;-147.18;100.00;67318.16;4980887;28;20013;-78
2022/08/27 06:12:29;;;;;;;;;;;20.20;99.90;;;-147.18;100.00;67318.16;4989894;28;19980;-77
2022/08/27 06:14:57;;;;;;;;;;;20.10;99.90;;;-147.18;100.00;67318.16;4981598;28;19928;-78
2022/08/27 06:17:24;;;;;;;;;;;20.20;99.90;;;-147.18;100.00;67318.16;4978155;28;19922;-78
2022/08/27 06:19:51;;;;;;;;;;;20.20;99.90;;;-147.18;100.00;67318.16;4980174;28;19921;-78
2022/08/27 06:22:18;;;;;;;;;;;20.20;99.90;;;-147.18;100.00;67318.16;4970611;28;20005;-77
2022/08/27 06:24:45;;;;;;;;;;;20.20;99.90;;;-147.18;100.00;67318.16;4970709;28;19922;-77
2022/08/27 06:27:14;;;;;;;;;;;20.20;99.90;;;-147.18;100.00;67318.16;4977277;28;20365;-77
2022/08/27 06:29:42;;;;;;;;;;;20.20;99.90;;;-147.18;100.00;67318.16;4980265;28;19926;-79
2022/08/27 06:32:11;;;;;;;;;;;20.20;99.90;;;-147.18;100.00;67318.16;4976635;28;19940;-79
2022/08/27 06:34:39;;;;;;;;;;;20.20;99.90;;;-147.18;100.00;67318.16;4981319;28;19976;-79
2022/08/27 06:37:06;;;;;;;;;;;20.20;99.90;;;-147.18;100.00;67318.16;4985781;28;20497;-79
2022/08/27 06:39:35;;;;;;;;;;;20.20;99.90;;;-147.18;100.00;67318.16;4978897;28;19925;-79
2022/08/27 06:42:02;;;;;;;;;;;20.30;99.90;;;-147.18;100.00;67318.16;4985520;28;20394;-79
2022/08/27 06:44:33;;;;;;;;;;;20.30;99.90;;;-147.18;100.00;67318.16;4977407;28;19925;-79
2022/08/27 06:47:02;;;;;;;;;;;20.30;99.90;;;-147.18;100.00;67318.16;4981590;28;19929;-79
2022/08/27 06:49:32;;;;;;;;;;;20.30;99.90;;;-147.18;100.00;67318.16;4982825;28;19925;-79
2022/08/27 06:51:59;;;;;;;;;;;20.30;99.90;;;-147.18;100.00;67318.16;4988372;28;20044;-79
2022/08/27 06:54:26;;;;;;;;;;;20.30;99.90;;;-147.18;100.00;67318.16;4976466;28;19933;-79
2022/08/27 06:56:53;;;;;;;;;;;20.30;99.90;;;-147.18;100.00;67318.16;4980843;28;20024;-79
2022/08/27 06:59:20;;;;;;;;;;;20.40;99.90;;;-147.18;100.00;67318.16;4939730;28;1106933;-79
2022/08/27 07:01:49;;;;;;;;;;;20.40;99.90;;;-147.18;100.00;67318.16;4980931;28;19984;-79
2022/08/27 07:04:19;;;;;;;;;;;20.30;99.90;;;-147.18;100.00;67318.16;4982047;28;19930;-79
2022/08/27 07:06:48;;;;;;;;;;;20.40;99.90;;;-147.18;100.00;67318.16;4984021;28;19922;-79
2022/08/27 07:09:16;;;;;;;;;;;20.40;99.90;;;-147.18;100.00;67318.16;4982766;28;19936;-79
2022/08/27 07:11:43;;;;;;;;;;;20.40;99.90;;;-147.18;100.00;67318.16;4973392;28;20032;-79
2022/08/27 07:14:10;;;;;;;;;;;20.40;99.90;;;-147.18;100.00;67318.16;4974087;28;20275;-79
2022/08/27 07:16:37;;;;;;;;;;;20.40;99.90;;;-147.18;100.00;67318.16;4977942;28;19932;-79
2022/08/27 07:19:05;;;;;;;;;;;20.40;99.90;;;-147.18;100.00;67318.16;4975705;28;19926;-79
2022/08/27 07:21:32;;;;;;;;;;;20.40;99.90;;;-147.18;100.00;67318.16;5001963;28;19940;-79
2022/08/27 07:24:03;;;;;;;;;;;20.40;99.90;;;-147.18;100.00;67318.16;4987718;28;19926;-79
2022/08/27 07:26:31;;;;;;;;;;;20.50;99.90;;;-147.18;100.00;67318.16;4976782;28;19925;-82
2022/08/27 07:28:59;;;;;;;;;;;20.50;99.90;;;-147.18;100.00;67318.16;4975588;28;19926;-81
2022/08/27 07:31:26;;;;;;;;;;;20.50;99.90;;;-147.18;100.00;67318.16;4992748;28;19941;-79
2022/08/27 07:33:53;;;;;;;;;;;20.50;99.90;;;-147.18;100.00;67318.16;4985966;28;19937;-79
2022/08/27 07:36:21;;;;;;;;;;;20.50;99.90;;;-147.18;100.00;67318.16;4989793;28;20044;-80
2022/08/27 07:38:49;;;;;;;;;;;20.60;99.90;;;-147.18;100.00;67318.16;4987017;28;19932;-79
2022/08/27 07:41:17;;;;;;;;;;;20.60;99.90;;;-147.18;100.00;67318.16;4988963;28;20012;-79
2022/08/27 07:46:29;;;;;;;;;;;20.70;99.90;;;-147.18;100.00;67318.16;4984037;28;19933;-84
2022/08/27 07:48:56;;;;;;;;;;;20.70;99.90;;;-147.18;100.00;67318.16;4983668;28;20021;-80
2022/08/27 07:51:26;;;;;;;;;;;20.70;99.90;;;-147.18;100.00;67318.16;4989350;28;19926;-80
2022/08/27 07:53:53;;;;;;;;;;;20.70;99.90;;;-147.18;100.00;67318.16;4988166;28;19936;-79
2022/08/27 07:56:22;;;;;;;;;;;20.80;99.90;;;-147.18;100.00;67318.16;4990896;28;19930;-78
2022/08/27 08:01:20;;;;;;;;;;;20.80;99.90;;;-147.18;100.00;67318.16;5025980;28;19928;-89
2022/08/27 08:03:47;;;;;;;;;;;20.80;99.90;;;-147.18;100.00;67318.16;5027532;28;19921;-89
2022/08/27 08:06:15;;;;;;;;;;;20.80;99.90;;;-147.18;100.00;67318.16;5029661;28;19935;-89
2022/08/27 08:08:44;;;;;;;;;;;20.80;99.90;;;-147.18;100.00;67318.16;5026185;28;19935;-86
2022/08/27 08:11:12;;;;;;;;;;;20.90;99.90;;;-147.18;100.00;67318.16;4997746;28;19926;-86
2022/08/27 08:13:41;;;;;;;;;;;20.90;99.90;;;-147.18;100.00;67318.16;4993189;28;19972;-86
2022/08/27 08:16:08;;;;;;;;;;;20.90;99.90;;;-147.18;100.00;67318.16;4995404;28;19925;-86
2022/08/27 08:18:35;;;;;;;;;;;20.80;99.90;;;-147.18;100.00;67318.16;5012679;28;19925;-86
2022/08/27 08:21:05;;;;;;;;;;;20.90;99.90;;;-147.18;100.00;67318.16;5007953;28;20024;-86
2022/08/27 08:23:32;;;;;;;;;;;20.90;99.90;;;-147.18;100.00;67318.16;5012679;28;19928;-86
2022/08/27 08:26:00;;;;;;;;;;;20.90;99.90;;;-147.18;100.00;67318.16;5002792;28;19959;-86
2022/08/27 08:28:27;;;;;;;;;;;20.90;99.90;;;-147.18;100.00;67318.16;5007596;28;19976;-86
2022/08/27 08:30:57;;;;;;;;;;;21.00;99.90;;;-147.18;100.00;67318.16;5000219;28;19932;-85
2022/08/27 08:33:26;;;;;;;;;;;21.00;99.90;;;-147.18;100.00;67318.16;4998287;28;19956;-85
2022/08/27 08:35:53;;;;;;;;;;;21.00;99.90;;;-147.18;100.00;67318.16;5010451;28;19965;-86
2022/08/27 08:38:24;;;;;;;;;;;21.00;99.90;;;-147.18;100.00;67318.16;5002435;28;19921;-87
2022/08/27 08:40:53;;;;;;;;;;;21.10;99.90;;;-147.18;100.00;67318.16;5002663;28;19960;-82
2022/08/27 08:43:27;;;;;;;;;;;21.10;99.90;;;-147.18;100.00;67318.16;5000574;28;19990;-88
2022/08/27 08:45:58;;;;;;;;;;;21.10;99.90;;;-147.18;100.00;67318.16;4999352;28;20012;-90
2022/08/27 08:48:26;;;;;;;;;;;21.10;99.60;;;-147.18;100.00;67318.16;5007507;28;19925;-85
2022/08/27 08:50:58;;;;;;;;;;;21.20;99.40;;;-147.18;100.00;67318.16;5011239;28;19929;-79
2022/08/27 08:53:33;;;;;;;;;;;21.20;98.50;;;-147.18;100.00;67318.16;4992542;28;19925;-86
2022/08/27 08:56:04;;;;;;;;;;;21.20;98.30;;;-147.18;100.00;67318.16;5006602;28;20015;-89
2022/08/27 08:58:34;;;;;;;;;;;21.20;98.50;;;-147.18;100.00;67318.16;5001873;28;19922;-89
2022/08/27 09:01:06;;;;;;;;;;;21.20;98.70;;;-147.18;100.00;67318.16;5006717;28;20016;-88
2022/08/27 09:03:35;;;;;;;;;;;21.30;97.90;;;-147.18;100.00;67318.16;4999870;28;19926;-87
2022/08/27 09:06:06;;;;;;;;;;;21.30;98.40;;;-147.18;100.00;67318.16;4995001;28;19949;-85
2022/08/27 09:08:35;;;;;;;;;;;21.30;98.60;;;-147.18;100.00;67318.16;5004665;28;19928;-82
2022/08/27 09:11:07;;;;;;;;;;;21.40;98.70;;;-147.18;100.00;67318.16;5010092;28;19949;-86
2022/08/27 09:13:38;;;;;;;;;;;21.40;97.70;;;-147.18;100.00;67318.16;5011453;28;19925;-83
2022/08/27 09:16:08;;;;;;;;;;;21.40;97.60;;;-147.18;100.00;67318.16;5010486;28;19929;-88
2022/08/27 09:18:39;;;;;;;;;;;21.40;98.50;;;-147.18;100.00;67318.16;5003424;28;19931;-92
2022/08/27 09:21:14;;;;;;;;;;;21.40;97.20;;;-147.18;100.00;67318.16;5004765;28;19949;-88
2022/08/27 09:23:52;;;;;;;;;;;21.40;96.30;;;-147.18;100.00;67318.16;4999202;28;20016;-85
2022/08/27 09:26:22;;;;;;;;;;;21.40;95.70;;;-147.18;100.00;67318.16;4999269;28;19925;-87
2022/08/27 09:31:39;;;;;;;;;;;21.40;95.80;;;-147.18;100.00;67318.16;4999914;28;19951;-88
2022/08/27 09:34:06;;;;;;;;;;;21.50;95.90;;;-147.18;100.00;67318.16;4991661;28;19927;-87
2022/08/27 09:36:33;;;;;;;;;;;21.40;95.10;;;-147.18;100.00;67318.16;4991718;28;19922;-87
2022/08/27 09:39:04;;;;;;;;;;;21.40;95.00;;;-147.18;100.00;67318.16;4991946;28;20374;-87
2022/08/27 09:41:36;;;;;;;;;;;21.50;95.70;;;-147.18;100.00;67318.16;4999340;28;20329;-84
2022/08/27 09:44:09;;;;;;;;;;;21.50;95.90;;;-147.18;100.00;67318.16;4998587;28;20330;-85
2022/08/27 09:46:37;;;;;;;;;;;21.50;95.80;;;-147.18;100.00;67318.16;5009186;28;19972;-90
2022/08/27 09:49:10;;;;;;;;;;;21.50;96.50;;;-147.18;100.00;67318.16;5004988;28;19925;-89
2022/08/27 09:51:40;;;;;;;;;;;21.60;97.30;;;-147.18;100.00;67318.16;5005221;28;20404;-88
2022/08/27 09:54:07;;;;;;;;;;;21.60;97.00;;;-147.18;100.00;67318.16;5010771;28;20461;-88
2022/08/27 09:56:38;;;;;;;;;;;21.70;97.10;;;-147.18;100.00;67318.16;5010584;28;19929;-86
2022/08/27 09:59:07;;;;;;;;;;;21.70;97.00;;;-147.18;100.00;67318.16;5002295;28;19956;-87
2022/08/27 10:01:37;;;;;;;;;;;21.80;96.30;;;-147.18;100.00;67318.16;4999361;28;19965;-87
2022/08/27 10:04:08;;;;;;;;;;;21.80;96.00;;;-147.18;100.00;67318.16;5001307;28;19925;-87
2022/08/27 10:06:36;;;;;;;;;;;21.80;96.20;;;-147.18;100.00;67318.16;5009563;28;19925;-87
2022/08/27 10:09:10;;;;;;;;;;;21.80;94.30;;;-147.18;100.00;67318.16;5009672;28;19987;-87
2022/08/27 10:11:40;;;;;;;;;;;21.80;94.40;;;-147.18;100.00;67318.16;5009691;28;19921;-88
2022/08/27 10:14:13;;;;;;;;;;;21.80;93.40;;;-147.18;100.00;67318.16;5000734;28;19976;-87
2022/08/27 10:16:51;;;;;;;;;;;21.80;94.60;;;-147.18;100.00;67318.16;5010233;28;19926;-88
2022/08/27 10:19:38;;;;;;;;;;;21.80;95.10;;;-147.18;100.00;67318.16;5010952;28;19921;-88
2022/08/27 10:22:10;;;;;;;;;;;21.80;93.70;;;-147.18;100.00;67318.16;4992351;28;20453;-88
2022/08/27 10:24:47;;;;;;;;;;;21.90;93.50;;;-147.18;100.00;67318.16;4999064;28;19925;-87
2022/08/27 10:27:19;;;;;;;;;;;21.90;93.40;;;-147.18;100.00;67318.16;5006211;28;19922;-88
2022/08/27 10:29:52;;;;;;;;;;;21.90;93.60;;;-147.18;100.00;67318.16;4991920;28;19922;-88
2022/08/27 10:32:32;;;;;;;;;;;21.80;92.70;;;-147.18;100.00;67318.16;5005524;28;19921;-88
2022/08/27 10:35:12;;;;;;;;;;;21.90;94.20;;;-147.18;100.00;67318.16;5000641;28;20343;-88
2022/08/27 10:37:47;;;;;;;;;;;21.90;95.10;;;-147.18;100.00;67318.16;5010746;28;20015;-88
2022/08/27 10:40:21;;;;;;;;;;;22.00;95.40;;;-147.18;100.00;67318.16;5010262;28;19927;-88
2022/08/27 10:42:55;;;;;;;;;;;22.00;95.40;;;-147.18;100.00;67318.16;5002490;28;20008;-88
2022/08/27 10:45:28;;;;;;;;;;;22.00;94.30;;;-147.18;100.00;67318.16;4998419;28;20008;-88
2022/08/27 10:48:05;;;;;;;;;;;22.00;94.50;;;-147.18;100.00;67318.16;5006854;28;19953;-88
2022/08/27 10:50:42;;;;;;;;;;;22.00;93.20;;;-147.18;100.00;67318.16;5010432;28;20000;-88
2022/08/27 10:53:17;;;;;;;;;;;22.00;94.30;;;-147.18;100.00;67318.16;5007345;28;20012;-88
2022/08/27 10:55:50;;;;;;;;;;;22.10;95.40;;;-147.18;100.00;67318.16;4997855;28;20016;-88
2022/08/27 10:58:29;;;;;;;;;;;22.10;93.40;;;-147.18;100.00;67318.16;4990866;28;19921;-87
2022/08/27 11:01:16;;;;;;;;;;;22.20;93.80;;;-147.18;100.00;67318.16;5001207;28;20490;-88
2022/08/27 11:03:49;;;;;;;;;;;22.30;93.90;;;-147.18;100.00;67318.16;5001585;28;19929;-88
2022/08/27 11:06:22;;;;;;;;;;;22.30;94.10;;;-147.18;100.00;67318.16;4995308;28;19929;-91
2022/08/27 11:08:54;;;;;;;;;;;22.30;95.20;;;-147.18;100.00;67318.16;4994668;28;19926;-79
2022/08/27 11:11:28;;;;;;;;;;;22.40;93.70;;;-147.18;100.00;67318.16;5006127;28;19921;-82
2022/08/27 11:14:02;;;;;;;;;;;22.40;92.30;;;-147.18;100.00;67318.16;5003606;28;19925;-83